Terminal Aerodrome Forecast
Issued by NWS San Angelo, TX

Home | Current Version | Previous Version | Text Only | Print | Product List | Glossary On
Versions: 1 2 3 4 5 6 7 8 9 10 11 12 13 14 15 16 17 18 19 20
000
FTUS44 KSJT 301309 AAB
TAFSJT
TAF AMD
KSJT 301309Z 3013/3112 16008KT P6SM SCT015 BKN035
      TEMPO 3013/3014 BKN015
     FM301700 17011KT P6SM BKN040
     FM310100 16010KT P6SM VCTS BKN050CB
     FM310400 15007KT P6SM SCT050 BKN250
     FM310900 15006KT P6SM BKN015=

USA.gov is the U.S. government's official web portal to all federal, state and local government web resources and services.